Time;durP1;ratioP1;P1;durP2;ratioP2;P2;SDS_P1;SDS_P2;PMS_P1;PMS_P2;Temp;Humidity;BMP_temperature;BMP_pressure;BME280_temperature;BME280_humidity;BME280_pressure;Samples;Min_cycle;Max_cycle;Signal;HPM_P1;HPM_P2
2023/05/01 00:00:49;;;;;;;;;1.00;1.00;;;;;21.55;43.47;101530.26;110216;1250;21085;-38
2023/05/01 00:03:18;;;;;;;;;1.00;1.00;;;;;21.55;43.49;101524.49;110177;1256;20808;-38
2023/05/01 00:05:46;;;;;;;;;1.00;1.00;;;;;21.55;43.40;101527.26;110146;1265;18250;-38
2023/05/01 00:08:14;;;;;;;;;4.00;1.00;;;;;21.55;43.50;101528.69;110261;1265;22625;-38
2023/05/01 00:10:42;;;;;;;;;1.00;1.00;;;;;21.55;43.41;101530.16;110206;1250;22005;-39
2023/05/01 00:13:09;;;;;;;;;1.00;1.00;;;;;21.55;43.65;101535.98;110169;1264;19569;-39
2023/05/01 00:15:37;;;;;;;;;1.00;1.00;;;;;21.54;43.47;101534.80;110200;1265;18986;-41
2023/05/01 00:18:04;;;;;;;;;1.00;1.00;;;;;21.55;43.56;101537.08;110190;1250;19363;-38
2023/05/01 00:20:31;;;;;;;;;1.50;1.50;;;;;21.55;43.47;101531.63;110221;1249;19618;-38
2023/05/01 00:22:59;;;;;;;;;2.00;2.00;;;;;21.55;43.36;101530.19;110214;1250;20004;-39
2023/05/01 00:25:27;;;;;;;;;1.00;1.00;;;;;21.54;43.55;101530.59;110182;1251;20986;-39
2023/05/01 00:27:55;;;;;;;;;1.00;1.00;;;;;21.54;43.55;101528.08;110204;1264;22445;-38
2023/05/01 00:30:22;;;;;;;;;1.00;1.00;;;;;21.54;43.45;101529.14;110081;1264;19965;-38
2023/05/01 00:32:49;;;;;;;;;1.00;1.00;;;;;21.54;43.36;101529.68;110186;1264;22932;-39
2023/05/01 00:35:17;;;;;;;;;1.00;1.00;;;;;21.54;43.45;101527.70;110186;1264;18375;-39
2023/05/01 00:37:44;;;;;;;;;1.00;1.00;;;;;21.54;43.44;101524.77;110190;1256;22749;-38
2023/05/01 00:40:12;;;;;;;;;1.00;1.00;;;;;21.54;43.39;101523.75;110197;1251;20989;-39
2023/05/01 00:42:39;;;;;;;;;1.00;1.00;;;;;21.54;43.30;101523.55;110221;1264;18371;-39
2023/05/01 00:45:07;;;;;;;;;1.00;1.00;;;;;21.55;43.37;101525.45;110205;1265;18568;-39
2023/05/01 00:47:34;;;;;;;;;1.00;1.00;;;;;21.54;43.47;101526.41;110220;1251;20971;-39
2023/05/01 00:50:02;;;;;;;;;1.00;1.00;;;;;21.54;43.59;101523.71;110228;1264;18586;-39
2023/05/01 00:52:29;;;;;;;;;2.00;2.00;;;;;21.55;43.35;101520.20;110157;1264;22191;-40
2023/05/01 00:54:57;;;;;;;;;1.50;1.00;;;;;21.53;43.40;101518.66;110232;1249;20638;-40
2023/05/01 00:57:24;;;;;;;;;1.00;1.00;;;;;21.53;43.60;101516.74;110211;1250;19654;-37
2023/05/01 00:59:52;;;;;;;;;1.00;1.00;;;;;21.52;43.51;101515.70;110202;1265;19960;-38
2023/05/01 01:02:19;;;;;;;;;2.00;1.00;;;;;21.53;43.49;101509.10;110193;1250;19992;-39
2023/05/01 01:04:47;;;;;;;;;1.00;1.00;;;;;21.52;43.44;101509.48;110171;1264;19631;-38
2023/05/01 01:07:14;;;;;;;;;1.00;1.00;;;;;21.52;43.39;101507.20;110199;1264;19804;-40
2023/05/01 01:09:42;;;;;;;;;1.00;1.00;;;;;21.53;43.35;101507.65;110170;1264;20691;-41
2023/05/01 01:12:09;;;;;;;;;1.00;1.00;;;;;21.52;43.46;101507.40;110090;1256;20797;-38
2023/05/01 01:14:36;;;;;;;;;1.00;1.00;;;;;21.53;43.39;101509.66;110180;1264;20501;-38
2023/05/01 01:17:04;;;;;;;;;1.00;1.00;;;;;21.52;43.34;101511.73;110262;1250;20799;-37
2023/05/01 01:19:31;;;;;;;;;1.00;1.00;;;;;21.53;43.33;101515.29;110260;1250;22615;-38
2023/05/01 01:21:59;;;;;;;;;1.00;1.00;;;;;21.52;43.47;101511.90;110202;1264;18582;-40
2023/05/01 01:24:27;;;;;;;;;2.00;2.00;;;;;21.52;43.50;101516.27;110232;1264;20666;-38
2023/05/01 01:26:55;;;;;;;;;1.00;1.00;;;;;21.52;43.52;101515.72;110244;1264;19609;-38
2023/05/01 01:29:22;;;;;;;;;1.00;1.00;;;;;21.52;43.42;101513.89;110208;1264;22281;-39
2023/05/01 01:31:50;;;;;;;;;1.00;1.00;;;;;21.52;43.35;101514.84;110198;1248;19360;-38
2023/05/01 01:34:18;;;;;;;;;1.00;1.00;;;;;21.52;43.25;101515.20;110189;1264;18397;-37
2023/05/01 01:36:45;;;;;;;;;1.00;1.00;;;;;21.51;43.30;101513.69;110204;1257;20151;-37
2023/05/01 01:39:12;;;;;;;;;2.00;2.00;;;;;21.50;43.51;101517.34;110214;1264;19794;-38
2023/05/01 01:41:40;;;;;;;;;1.00;1.00;;;;;21.51;43.30;101514.93;110206;1264;18359;-38
2023/05/01 01:44:07;;;;;;;;;1.00;1.00;;;;;21.51;43.37;101517.67;110216;1264;18986;-37
2023/05/01 01:46:35;;;;;;;;;1.00;1.00;;;;;21.51;43.38;101513.80;110184;1251;20849;-39
2023/05/01 01:49:02;;;;;;;;;1.00;1.00;;;;;21.52;43.36;101513.59;110212;1248;20022;-39
2023/05/01 01:51:30;;;;;;;;;1.00;1.00;;;;;21.52;43.30;101513.05;110253;1249;20013;-40
2023/05/01 01:53:58;;;;;;;;;1.00;1.00;;;;;21.51;43.35;101509.77;110187;1264;22908;-39
2023/05/01 01:56:26;;;;;;;;;1.00;1.00;;;;;21.51;43.17;101504.52;110208;1265;19578;-38
2023/05/01 01:58:54;;;;;;;;;1.00;1.00;;;;;21.51;43.50;101498.02;110182;1264;20339;-37
2023/05/01 02:01:21;;;;;;;;;1.50;1.00;;;;;21.52;43.30;101497.61;110197;1250;20674;-39
2023/05/01 02:03:49;;;;;;;;;1.00;1.00;;;;;21.52;43.42;101496.14;110183;1251;20699;-39
2023/05/01 02:06:16;;;;;;;;;1.00;1.00;;;;;21.50;43.18;101493.55;110280;1264;18644;-39
2023/05/01 02:08:43;;;;;;;;;1.00;1.00;;;;;21.51;43.27;101492.77;110263;1249;19268;-39
2023/05/01 02:11:11;;;;;;;;;1.00;1.00;;;;;21.51;43.40;101489.96;110194;1251;19662;-39
2023/05/01 02:13:38;;;;;;;;;1.00;1.00;;;;;21.50;43.41;101485.52;110171;1251;20081;-38
2023/05/01 02:16:06;;;;;;;;;1.00;1.00;;;;;21.50;43.22;101481.36;110177;1251;22309;-38
2023/05/01 02:18:33;;;;;;;;;1.00;1.00;;;;;21.50;43.49;101481.34;110202;1251;19614;-39
2023/05/01 02:21:01;;;;;;;;;1.00;1.00;;;;;21.51;43.32;101476.56;110223;1250;18600;-38
2023/05/01 02:23:28;;;;;;;;;1.00;1.00;;;;;21.51;43.24;101477.10;110155;1250;20764;-38
2023/05/01 02:25:55;;;;;;;;;2.00;1.00;;;;;21.51;43.30;101477.48;110130;1256;19584;-38
2023/05/01 02:28:23;;;;;;;;;1.00;1.00;;;;;21.50;43.22;101475.17;110167;1250;20069;-38
2023/05/01 02:30:51;;;;;;;;;1.00;1.00;;;;;21.50;43.39;101473.56;110187;1265;20782;-38
2023/05/01 02:33:18;;;;;;;;;1.00;1.00;;;;;21.50;43.28;101468.11;110200;1251;19639;-38
2023/05/01 02:35:46;;;;;;;;;2.00;2.00;;;;;21.49;43.21;101466.54;110228;1265;18515;-38
2023/05/01 02:38:15;;;;;;;;;2.00;1.00;;;;;21.50;43.31;101462.89;110168;1250;20688;-38
2023/05/01 02:40:42;;;;;;;;;1.00;1.00;;;;;21.49;43.15;101467.15;110219;1249;21060;-38
2023/05/01 02:43:09;;;;;;;;;1.00;1.00;;;;;21.49;43.27;101468.93;110205;1249;23757;-38
2023/05/01 02:45:37;;;;;;;;;1.00;1.00;;;;;21.49;43.18;101468.75;110247;1250;20733;-37
2023/05/01 02:48:04;;;;;;;;;1.00;1.00;;;;;21.50;43.35;101466.54;110263;1264;23294;-37
2023/05/01 02:50:32;;;;;;;;;1.00;1.00;;;;;21.49;43.32;101461.90;110178;1264;18622;-39
2023/05/01 02:52:59;;;;;;;;;1.00;1.00;;;;;21.50;43.29;101458.73;110194;1256;23398;-37
2023/05/01 02:55:27;;;;;;;;;1.00;1.00;;;;;21.49;43.17;101459.68;110176;1250;19654;-38
2023/05/01 02:57:54;;;;;;;;;2.00;1.00;;;;;21.49;43.39;101459.72;110195;1265;19949;-38
2023/05/01 03:00:22;;;;;;;;;2.00;1.00;;;;;21.48;43.36;101458.49;110212;1264;19344;-38
2023/05/01 03:02:49;;;;;;;;;1.00;1.00;;;;;21.48;43.32;101458.52;110227;1265;19744;-37
2023/05/01 03:05:18;;;;;;;;;1.33;1.33;;;;;21.49;43.25;101453.38;110260;1264;19184;-37
2023/05/01 03:07:46;;;;;;;;;1.00;1.00;;;;;21.48;43.19;101459.20;110210;1264;19341;-38
2023/05/01 03:10:13;;;;;;;;;1.00;1.00;;;;;21.49;43.24;101451.91;110212;1264;19531;-38
2023/05/01 03:12:41;;;;;;;;;1.00;1.00;;;;;21.48;43.36;101450.66;110190;1257;20166;-39
2023/05/01 03:15:08;;;;;;;;;1.00;1.00;;;;;21.48;43.25;101453.38;110182;1264;22271;-38
2023/05/01 03:17:36;;;;;;;;;1.00;1.00;;;;;21.49;43.20;101452.25;110190;1251;18380;-39
2023/05/01 03:20:05;;;;;;;;;1.50;1.00;;;;;21.49;43.24;101449.02;110209;1265;20084;-38
2023/05/01 03:22:32;;;;;;;;;1.00;1.00;;;;;21.49;43.26;101448.81;110242;1264;19266;-38
2023/05/01 03:25:00;;;;;;;;;1.00;1.00;;;;;21.49;43.23;101448.98;110209;1249;19578;-39
2023/05/01 03:27:27;;;;;;;;;1.50;1.00;;;;;21.49;43.08;101445.87;110199;1265;20114;-39
2023/05/01 03:29:55;;;;;;;;;1.00;1.00;;;;;21.48;43.23;101443.46;110197;1251;21248;-39
2023/05/01 03:32:22;;;;;;;;;1.00;1.00;;;;;21.48;43.37;101447.79;110194;1264;18528;-39
2023/05/01 03:34:49;;;;;;;;;1.50;1.50;;;;;21.48;43.09;101447.83;110171;1251;23072;-39
2023/05/01 03:37:17;;;;;;;;;1.00;1.00;;;;;21.48;43.13;101446.15;110202;1264;19370;-39
2023/05/01 03:39:45;;;;;;;;;1.00;1.00;;;;;21.47;43.28;101443.17;110192;1249;20796;-38
2023/05/01 03:42:12;;;;;;;;;1.00;1.00;;;;;21.48;43.26;101446.49;110202;1250;20004;-39
2023/05/01 03:44:40;;;;;;;;;1.00;1.00;;;;;21.48;43.08;101447.48;110196;1264;19324;-38
2023/05/01 03:47:07;;;;;;;;;1.00;1.00;;;;;21.48;43.37;101450.20;110184;1265;22748;-38
2023/05/01 03:49:35;;;;;;;;;1.00;1.00;;;;;21.48;43.24;101447.99;110204;1256;19898;-39
2023/05/01 03:52:02;;;;;;;;;1.00;1.00;;;;;21.47;43.23;101454.44;110173;1264;19573;-39
2023/05/01 03:54:30;;;;;;;;;1.00;1.00;;;;;21.48;43.08;101450.73;110199;1251;19711;-41
2023/05/01 03:56:57;;;;;;;;;1.67;1.00;;;;;21.47;43.12;101459.14;110177;1265;20295;-39
2023/05/01 03:59:24;;;;;;;;;1.67;1.00;;;;;21.47;43.28;101458.23;110201;1264;19355;-37
2023/05/01 04:01:52;;;;;;;;;1.00;1.00;;;;;21.48;43.35;101459.66;110281;1250;22156;-37
2023/05/01 04:04:19;;;;;;;;;1.00;1.00;;;;;21.48;43.19;101455.83;110266;1264;18618;-38
2023/05/01 04:06:47;;;;;;;;;1.00;1.00;;;;;21.48;43.18;101460.91;110195;1251;22124;-37
2023/05/01 04:09:15;;;;;;;;;1.00;1.00;;;;;21.48;43.34;101461.29;110268;1264;18443;-40
2023/05/01 04:11:42;;;;;;;;;1.00;1.00;;;;;21.47;43.19;101458.80;110178;1265;18613;-38
2023/05/01 04:14:09;;;;;;;;;1.00;1.00;;;;;21.48;43.30;101462.01;110186;1264;19398;-38
2023/05/01 04:16:37;;;;;;;;;1.00;1.00;;;;;21.48;43.17;101460.20;110148;1264;19581;-38
2023/05/01 04:19:04;;;;;;;;;1.00;1.00;;;;;21.47;43.26;101460.95;110230;1250;20010;-38
2023/05/01 04:21:32;;;;;;;;;1.00;1.00;;;;;21.47;43.14;101454.23;110283;1265;20922;-38
2023/05/01 04:24:00;;;;;;;;;1.00;1.00;;;;;21.48;43.26;101457.02;110206;1264;18695;-39
2023/05/01 04:26:28;;;;;;;;;1.00;1.00;;;;;21.50;43.11;101456.72;110190;1264;18630;-38
2023/05/01 04:28:55;;;;;;;;;1.00;1.00;;;;;21.50;43.20;101459.76;110183;1264;19399;-37
2023/05/01 04:31:23;;;;;;;;;1.00;1.00;;;;;21.50;43.35;101459.04;110181;1251;19657;-38
2023/05/01 04:33:50;;;;;;;;;2.00;2.00;;;;;21.50;43.22;101461.39;110197;1264;21399;-39
2023/05/01 04:36:18;;;;;;;;;1.00;1.00;;;;;21.50;43.28;101458.08;110198;1264;20837;-38
2023/05/01 04:38:45;;;;;;;;;2.00;2.00;;;;;21.50;43.11;101460.27;110214;1256;22297;-39
2023/05/01 04:41:12;;;;;;;;;2.00;1.00;;;;;21.50;43.35;101455.26;110233;1264;20036;-38
2023/05/01 04:43:40;;;;;;;;;1.00;1.00;;;;;21.50;43.29;101457.20;110147;1251;22256;-39
2023/05/01 04:46:07;;;;;;;;;1.00;1.00;;;;;21.50;43.21;101456.27;110116;1264;19641;-38
2023/05/01 04:48:35;;;;;;;;;2.00;2.00;;;;;21.50;43.26;101456.69;110157;1264;20034;-40
2023/05/01 04:51:03;;;;;;;;;1.00;1.00;;;;;21.49;43.43;101456.55;110200;1251;20842;-38
2023/05/01 04:53:30;;;;;;;;;1.00;1.00;;;;;21.52;43.52;101457.77;110190;1248;19681;-39
2023/05/01 04:55:58;;;;;;;;;1.00;1.00;;;;;21.54;43.57;101455.82;110194;1249;20063;-38
2023/05/01 04:58:25;;;;;;;;;1.33;1.00;;;;;21.56;43.33;101459.16;110139;1249;19339;-38
2023/05/01 05:00:53;;;;;;;;;1.33;1.33;;;;;21.57;43.48;101458.42;110180;1264;18421;-38
2023/05/01 05:03:20;;;;;;;;;1.50;1.50;;;;;21.58;43.49;101458.92;110098;1264;19836;-42
2023/05/01 05:05:48;;;;;;;;;1.00;1.00;;;;;21.57;43.53;101459.31;110150;1251;20833;-39
2023/05/01 05:08:15;;;;;;;;;1.00;1.00;;;;;21.58;43.58;101459.39;110163;1264;19563;-38
2023/05/01 05:10:43;;;;;;;;;1.00;1.00;;;;;21.59;43.59;101459.45;110124;1264;18769;-39
2023/05/01 05:13:10;;;;;;;;;1.00;1.00;;;;;21.58;43.53;101451.74;110171;1249;20795;-39
2023/05/01 05:15:38;;;;;;;;;2.00;1.00;;;;;21.58;43.73;101453.17;110266;1264;19890;-38
2023/05/01 05:18:05;;;;;;;;;1.00;1.00;;;;;21.60;43.71;101452.20;110227;1251;20041;-39
2023/05/01 05:20:32;;;;;;;;;1.00;1.00;;;;;21.58;43.56;101449.63;110210;1264;22044;-38
2023/05/01 05:23:00;;;;;;;;;1.00;1.00;;;;;21.58;43.52;101443.44;110154;1265;18326;-41
2023/05/01 05:25:27;;;;;;;;;1.33;1.00;;;;;21.59;43.56;101442.64;110101;1249;19965;-39
2023/05/01 05:27:55;;;;;;;;;4.00;2.00;;;;;21.59;43.60;101442.10;110139;1259;20787;-39
2023/05/01 05:30:22;;;;;;;;;1.00;1.00;;;;;21.58;43.65;101441.56;110217;1264;18404;-39
2023/05/01 05:32:49;;;;;;;;;1.00;1.00;;;;;21.61;43.51;101442.81;110260;1257;23836;-40
2023/05/01 05:35:17;;;;;;;;;1.00;1.00;;;;;21.63;43.52;101442.38;110256;1265;19323;-39
2023/05/01 05:37:44;;;;;;;;;2.00;2.00;;;;;21.65;43.79;101439.48;110259;1265;18308;-39
2023/05/01 05:40:12;;;;;;;;;1.00;1.00;;;;;21.68;43.98;101440.79;110282;1265;22258;-39
2023/05/01 05:42:39;;;;;;;;;2.00;1.00;;;;;21.70;44.12;101437.28;110227;1250;20870;-39
2023/05/01 05:45:07;;;;;;;;;1.00;1.00;;;;;21.70;44.10;101435.10;110201;1265;19758;-39
2023/05/01 05:47:34;;;;;;;;;1.67;1.67;;;;;21.71;44.21;101437.16;110212;1265;20967;-38
2023/05/01 05:50:01;;;;;;;;;4.00;2.00;;;;;21.71;44.34;101437.48;110230;1251;20658;-38
2023/05/01 05:52:29;;;;;;;;;2.00;2.00;;;;;21.75;44.21;101437.59;110228;1264;18384;-38
2023/05/01 05:54:56;;;;;;;;;2.00;2.00;;;;;21.77;44.46;101436.29;110193;1250;21312;-37
2023/05/01 05:57:24;;;;;;;;;2.00;2.00;;;;;21.77;44.35;101436.80;110248;1251;21142;-37
2023/05/01 05:59:51;;;;;;;;;1.00;1.00;;;;;21.80;44.14;101434.20;110245;1251;19585;-38
2023/05/01 06:02:19;;;;;;;;;1.00;1.00;;;;;21.80;44.27;101437.91;110206;1249;18616;-38
2023/05/01 06:04:46;;;;;;;;;2.00;2.00;;;;;21.81;44.35;101436.41;110203;1250;22380;-37
2023/05/01 06:07:14;;;;;;;;;2.00;2.00;;;;;21.83;44.53;101435.08;110203;1249;19680;-38
2023/05/01 06:09:41;;;;;;;;;4.00;4.00;;;;;21.86;44.40;101440.02;110204;1265;18645;-39
2023/05/01 06:12:09;;;;;;;;;5.00;5.00;;;;;21.90;44.64;101442.73;110230;1264;20697;-37
2023/05/01 06:14:36;;;;;;;;;5.00;4.00;;;;;21.93;44.95;101441.13;110192;1264;22802;-38
2023/05/01 06:17:03;;;;;;;;;4.00;4.00;;;;;21.96;45.24;101440.05;110192;1256;18560;-38
2023/05/01 06:19:31;;;;;;;;;4.00;4.00;;;;;21.98;45.16;101443.10;110272;1253;20761;-43
2023/05/01 06:21:58;;;;;;;;;2.00;2.00;;;;;22.00;45.37;101439.42;110260;1264;18686;-38
2023/05/01 06:24:26;;;;;;;;;5.00;4.00;;;;;22.00;45.19;101444.28;110185;1264;20175;-39
2023/05/01 06:26:53;;;;;;;;;4.00;4.00;;;;;22.00;45.09;101442.13;110166;1250;22841;-38
2023/05/01 06:29:21;;;;;;;;;2.00;2.00;;;;;22.00;44.83;101439.98;110163;1264;18546;-39
2023/05/01 06:31:48;;;;;;;;;2.00;2.00;;;;;22.01;44.92;101441.52;110118;1264;18776;-38
2023/05/01 06:34:16;;;;;;;;;2.00;2.00;;;;;22.03;44.77;101443.97;110145;1264;22228;-39
2023/05/01 06:36:43;;;;;;;;;2.00;2.00;;;;;22.03;44.93;101437.77;110225;1264;18414;-38
2023/05/01 06:39:10;;;;;;;;;4.00;2.00;;;;;22.05;44.93;101438.13;110198;1264;19757;-38
2023/05/01 06:41:38;;;;;;;;;2.00;2.00;;;;;22.08;44.72;101442.55;110269;1251;20746;-38
2023/05/01 06:44:06;;;;;;;;;2.00;2.00;;;;;22.08;44.71;101435.29;110237;1265;19562;-39
2023/05/01 06:46:33;;;;;;;;;3.33;3.33;;;;;22.08;44.67;101433.08;110217;1264;18647;-39
2023/05/01 06:49:00;;;;;;;;;2.00;2.00;;;;;22.08;44.84;101430.89;110242;1264;22902;-39
2023/05/01 06:51:29;;;;;;;;;1.00;1.00;;;;;22.09;44.71;101425.52;110286;1264;19616;-37
2023/05/01 06:53:56;;;;;;;;;2.00;2.00;;;;;22.10;44.66;101426.66;110295;1249;20004;-38
2023/05/01 06:56:24;;;;;;;;;2.00;2.00;;;;;22.11;44.71;101429.67;110230;1250;20829;-38
2023/05/01 06:58:51;;;;;;;;;2.00;2.00;;;;;22.15;44.87;101426.92;110216;1264;20805;-39
2023/05/01 07:01:18;;;;;;;;;2.00;2.00;;;;;22.16;44.97;101420.91;110235;1265;18696;-37
2023/05/01 07:03:46;;;;;;;;;4.00;2.00;;;;;22.17;44.93;101415.02;110129;1251;20621;-37
2023/05/01 07:06:14;;;;;;;;;1.00;1.00;;;;;22.17;44.92;101416.10;110152;1265;22433;-38
2023/05/01 07:08:41;;;;;;;;;2.00;2.00;;;;;22.17;44.94;101413.20;110186;1265;18614;-38
2023/05/01 07:11:08;;;;;;;;;4.00;4.00;;;;;22.17;44.78;101411.26;110184;1250;19478;-38
2023/05/01 07:13:37;;;;;;;;;2.00;2.00;;;;;22.18;45.00;101411.47;110207;1250;19697;-40
2023/05/01 07:16:04;;;;;;;;;1.00;1.00;;;;;22.21;44.91;101411.66;110221;1249;23548;-38
2023/05/01 07:18:32;;;;;;;;;2.00;2.00;;;;;22.22;45.10;101408.93;110218;1251;20787;-39
2023/05/01 07:20:59;;;;;;;;;2.00;2.00;;;;;22.21;44.91;101405.83;110187;1265;22812;-39
2023/05/01 07:23:26;;;;;;;;;2.00;2.00;;;;;22.20;44.65;101404.09;110277;1264;18658;-39
2023/05/01 07:25:54;;;;;;;;;1.00;1.00;;;;;22.24;44.87;101406.55;110244;1264;19376;-40
2023/05/01 07:28:22;;;;;;;;;2.00;2.00;;;;;22.28;44.94;101410.16;110171;1265;18617;-39
2023/05/01 07:30:50;;;;;;;;;2.00;2.00;;;;;22.30;45.30;101403.70;110208;1250;18543;-39
2023/05/01 07:33:17;;;;;;;;;2.00;2.00;;;;;22.34;45.48;101402.73;110224;1265;20719;-39
2023/05/01 07:35:45;;;;;;;;;1.67;1.67;;;;;22.34;45.66;101408.48;110233;1264;19901;-40
2023/05/01 07:38:13;;;;;;;;;4.50;4.50;;;;;22.37;45.61;101407.64;110199;1251;20195;-38
2023/05/01 07:40:41;;;;;;;;;71.67;51.67;;;;;22.39;45.72;101402.81;110293;1249;22000;-39
2023/05/01 07:43:10;;;;;;;;;78.50;55.50;;;;;22.39;45.75;101399.61;110229;1250;19542;-39
2023/05/01 07:45:37;;;;;;;;;105.00;75.00;;;;;22.36;45.61;101400.61;110224;1264;18739;-39
2023/05/01 07:48:04;;;;;;;;;88.00;65.00;;;;;22.33;45.50;101402.40;110171;1264;20731;-39
2023/05/01 07:50:32;;;;;;;;;73.50;57.50;;;;;22.34;45.61;101398.73;110184;1264;20294;-39
2023/05/01 07:52:59;;;;;;;;;59.00;48.00;;;;;22.35;45.74;101400.40;110172;1256;23581;-42
2023/05/01 07:55:27;;;;;;;;;51.00;40.00;;;;;22.33;45.05;101400.82;110211;1264;19396;-39
2023/05/01 07:57:54;;;;;;;;;43.00;39.00;;;;;22.24;43.93;101399.63;110198;1250;20100;-40
2023/05/01 08:00:22;;;;;;;;;37.00;32.00;;;;;22.27;43.96;101397.30;110173;1265;21289;-42
2023/05/01 08:02:49;;;;;;;;;36.00;29.00;;;;;22.29;44.11;101390.73;110218;1250;23348;-39
2023/05/01 08:05:17;;;;;;;;;33.00;27.67;;;;;22.30;44.17;101388.23;110274;1264;18601;-39
2023/05/01 08:07:44;;;;;;;;;32.00;26.67;;;;;22.33;44.58;101383.70;110234;1256;23461;-40
2023/05/01 08:10:12;;;;;;;;;29.00;25.00;;;;;22.32;44.48;101383.95;110203;1265;19383;-40
2023/05/01 08:12:39;;;;;;;;;19.00;17.00;;;;;22.30;44.55;101384.73;110183;1251;20089;-39
2023/05/01 08:15:07;;;;;;;;;21.00;18.00;;;;;22.30;44.49;101385.72;110194;1251;22701;-41
2023/05/01 08:17:35;;;;;;;;;17.00;14.00;;;;;22.32;44.52;101383.52;110194;1264;19347;-41
2023/05/01 08:20:02;;;;;;;;;19.00;17.50;;;;;22.31;44.59;101384.29;110157;1251;22816;-41
2023/05/01 08:22:30;;;;;;;;;14.00;12.00;;;;;22.32;44.52;101384.44;110210;1264;18880;-41
2023/05/01 08:24:58;;;;;;;;;21.00;15.00;;;;;22.31;44.58;101383.58;110192;1251;20985;-40
2023/05/01 08:27:25;;;;;;;;;11.00;11.00;;;;;22.31;44.33;101383.95;110185;1264;18613;-41
2023/05/01 08:29:53;;;;;;;;;10.50;9.50;;;;;22.31;44.25;101382.70;110030;1264;184112;-41
2023/05/01 08:32:20;;;;;;;;;12.00;11.00;;;;;22.31;44.29;101382.79;110256;1264;20719;-42
2023/05/01 08:34:48;;;;;;;;;11.00;11.00;;;;;22.31;44.22;101379.92;110219;1265;22002;-41
2023/05/01 08:37:17;;;;;;;;;10.67;9.00;;;;;22.31;44.36;101383.27;110204;1264;18728;-41
2023/05/01 08:39:45;;;;;;;;;9.00;7.00;;;;;22.30;44.14;101380.09;110190;1264;21114;-41
2023/05/01 08:42:12;;;;;;;;;9.50;8.50;;;;;22.30;44.21;101382.63;110200;1264;18620;-40
2023/05/01 08:44:39;;;;;;;;;8.00;7.00;;;;;22.29;44.14;101378.52;110165;1264;23138;-41
2023/05/01 08:47:08;;;;;;;;;7.00;7.00;;;;;22.29;44.09;101378.52;110172;1250;22259;-44
2023/05/01 08:49:35;;;;;;;;;5.00;5.00;;;;;22.29;44.02;101374.52;110207;1250;22329;-41
2023/05/01 08:52:03;;;;;;;;;9.50;6.00;;;;;22.30;43.93;101373.74;110172;1256;20141;-41
2023/05/01 08:54:30;;;;;;;;;4.00;4.00;;;;;22.29;43.75;101367.19;110227;1264;22855;-41
2023/05/01 08:56:58;;;;;;;;;7.50;6.00;;;;;22.29;43.76;101365.92;110192;1264;18361;-40
2023/05/01 08:59:25;;;;;;;;;5.00;5.00;;;;;22.27;43.63;101363.42;110199;1250;19858;-40
2023/05/01 09:01:53;;;;;;;;;7.00;5.00;;;;;22.26;43.64;101363.03;110202;1251;22233;-40
2023/05/01 09:04:20;;;;;;;;;4.00;4.00;;;;;22.25;43.58;101362.77;110204;1253;19706;-41
2023/05/01 09:06:48;;;;;;;;;7.00;5.00;;;;;22.24;43.70;101356.92;110192;1264;22140;-41
2023/05/01 09:09:15;;;;;;;;;5.00;5.00;;;;;22.22;43.59;101353.05;110189;1264;19312;-41
2023/05/01 09:11:42;;;;;;;;;5.00;5.00;;;;;22.24;43.47;101352.73;110187;1251;19656;-40
2023/05/01 09:14:10;;;;;;;;;4.00;4.00;;;;;22.24;43.42;101354.73;110191;1264;22335;-42
2023/05/01 09:16:37;;;;;;;;;4.00;4.00;;;;;22.22;43.43;101348.38;110205;1265;19359;-42
2023/05/01 09:19:05;;;;;;;;;4.00;4.00;;;;;22.22;43.44;101347.28;110161;1264;18386;-42
2023/05/01 09:21:32;;;;;;;;;5.00;4.00;;;;;22.22;43.32;101345.27;110146;1264;19955;-40
2023/05/01 09:24:01;;;;;;;;;5.00;5.00;;;;;22.20;43.41;101342.45;110194;1265;20688;-40
2023/05/01 09:26:29;;;;;;;;;4.00;4.00;;;;;22.18;43.36;101336.45;110214;1265;22631;-39
2023/05/01 09:28:57;;;;;;;;;4.00;4.00;;;;;22.18;43.29;101334.64;110270;1264;18677;-39
2023/05/01 09:31:26;;;;;;;;;3.00;3.00;;;;;22.20;43.16;101335.94;110282;1265;20618;-39
2023/05/01 09:33:54;;;;;;;;;5.00;4.00;;;;;22.18;43.16;101327.88;110216;1264;22752;-41
2023/05/01 09:36:21;;;;;;;;;5.00;4.00;;;;;22.17;43.09;101329.45;110206;1256;18622;-40
2023/05/01 09:38:49;;;;;;;;;2.00;2.00;;;;;22.17;42.96;101325.70;110201;1264;20882;-40
2023/05/01 09:41:16;;;;;;;;;4.00;4.00;;;;;22.15;43.06;101318.77;110196;1264;18371;-40
2023/05/01 09:43:44;;;;;;;;;4.00;4.00;;;;;22.15;42.86;101316.63;110239;1264;18660;-41
2023/05/01 09:46:12;;;;;;;;;1.00;1.00;;;;;22.13;42.85;101314.92;110197;1265;22772;-40
2023/05/01 09:48:40;;;;;;;;;2.67;2.00;;;;;22.12;42.83;101307.55;110184;1264;18361;-42
2023/05/01 09:51:08;;;;;;;;;2.00;2.00;;;;;22.13;42.89;101302.73;110090;1264;19878;-40
2023/05/01 09:53:36;;;;;;;;;2.00;2.00;;;;;22.13;42.84;101300.79;110225;1265;19395;-40
2023/05/01 09:56:03;;;;;;;;;4.00;4.00;;;;;22.12;42.76;101298.66;110224;1264;18301;-40
2023/05/01 09:58:31;;;;;;;;;4.00;2.00;;;;;22.12;42.59;101296.48;110230;1264;20050;-42
2023/05/01 10:00:59;;;;;;;;;1.00;1.00;;;;;22.11;42.73;101293.64;110181;1265;19490;-39
2023/05/01 10:03:27;;;;;;;;;2.00;2.00;;;;;22.11;42.61;101288.25;110266;1264;18735;-40
2023/05/01 10:05:55;;;;;;;;;2.00;2.00;;;;;22.12;42.55;101284.71;110243;1264;18745;-41
2023/05/01 10:08:23;;;;;;;;;2.00;2.00;;;;;22.11;42.47;101287.67;110187;1265;19617;-40
2023/05/01 10:10:50;;;;;;;;;2.00;2.00;;;;;22.10;42.34;101285.25;110203;1264;20076;-40
2023/05/01 10:13:18;;;;;;;;;2.00;2.00;;;;;22.10;42.32;101279.83;110176;1248;20813;-41
2023/05/01 10:15:45;;;;;;;;;2.00;2.00;;;;;22.09;42.31;101277.36;110105;1265;19379;-39
2023/05/01 10:18:13;;;;;;;;;2.00;2.00;;;;;22.08;42.38;101273.09;110214;1264;18352;-40
2023/05/01 10:20:40;;;;;;;;;2.00;2.00;;;;;22.08;42.23;101274.18;110187;1264;18652;-39
2023/05/01 10:23:08;;;;;;;;;2.00;2.00;;;;;22.07;42.19;101270.23;110182;1251;19355;-40
2023/05/01 10:25:35;;;;;;;;;1.00;1.00;;;;;22.07;42.32;101267.15;110210;1264;18344;-41
2023/05/01 10:28:03;;;;;;;;;1.00;1.00;;;;;22.07;42.12;101267.93;110214;1264;19982;-40
2023/05/01 10:30:30;;;;;;;;;1.00;1.00;;;;;22.06;42.19;101261.11;110208;1250;19743;-40
2023/05/01 10:32:57;;;;;;;;;1.50;1.50;;;;;22.06;42.20;101266.02;110270;1250;19656;-39
2023/05/01 10:35:25;;;;;;;;;4.00;2.00;;;;;22.06;42.15;101262.41;110236;1265;19935;-40
2023/05/01 10:37:54;;;;;;;;;2.00;2.00;;;;;22.06;42.00;101264.18;110192;1264;22135;-41
2023/05/01 10:40:21;;;;;;;;;2.00;2.00;;;;;22.04;41.83;101252.44;110267;1249;19648;-41
2023/05/01 10:42:49;;;;;;;;;2.00;2.00;;;;;22.03;42.09;101253.42;110228;1250;18600;-41
2023/05/01 10:45:16;;;;;;;;;1.00;1.00;;;;;22.04;41.98;101251.55;110199;1264;20611;-41
2023/05/01 10:47:43;;;;;;;;;2.00;2.00;;;;;22.05;41.88;101253.19;110154;1249;19725;-40
2023/05/01 10:50:11;;;;;;;;;2.00;2.00;;;;;22.04;41.82;101249.52;110198;1264;18645;-40
2023/05/01 10:52:38;;;;;;;;;1.00;1.00;;;;;22.03;41.90;101244.73;110210;1265;22793;-40
2023/05/01 10:55:06;;;;;;;;;2.00;2.00;;;;;22.03;41.86;101241.83;110215;1265;18406;-41
2023/05/01 10:57:33;;;;;;;;;1.67;1.67;;;;;22.03;41.81;101243.73;110258;1265;22267;-41
2023/05/01 11:00:01;;;;;;;;;1.00;1.00;;;;;22.03;41.78;101246.19;110245;1250;20830;-44
2023/05/01 11:02:29;;;;;;;;;2.00;2.00;;;;;22.03;41.80;101238.55;110263;1264;19779;-41
2023/05/01 11:04:56;;;;;;;;;2.00;2.00;;;;;22.03;41.82;101238.21;110187;1265;19164;-41
2023/05/01 11:07:25;;;;;;;;;2.00;2.00;;;;;22.01;41.65;101230.94;110196;1250;20810;-40
2023/05/01 11:09:54;;;;;;;;;1.00;1.00;;;;;22.01;41.61;101230.62;110189;1251;20299;-42
2023/05/01 11:12:21;;;;;;;;;1.00;1.00;;;;;22.01;41.58;101221.84;110240;1264;18519;-41
2023/05/01 11:14:49;;;;;;;;;1.00;1.00;;;;;22.01;41.65;101224.73;110157;1264;20755;-41
2023/05/01 11:17:16;;;;;;;;;2.00;2.00;;;;;22.00;41.60;101220.45;110199;1250;18564;-41